sensor_id;sensor_type;location;lat;lon;timestamp;P1;durP1;ratioP1;P2;durP2;ratioP2
4519;SDS011;2272;49.226;8.108;2022-10-16T00:01:50;0.70;;;0.70;;
4519;SDS011;2272;49.226;8.108;2022-10-16T00:04:16;1.00;;;0.80;;
4519;SDS011;2272;49.226;8.108;2022-10-16T00:06:43;0.90;;;0.90;;
4519;SDS011;2272;49.226;8.108;2022-10-16T00:09:10;0.70;;;0.70;;
4519;SDS011;2272;49.226;8.108;2022-10-16T00:11:37;1.33;;;0.80;;
4519;SDS011;2272;49.226;8.108;2022-10-16T00:14:06;0.77;;;0.77;;
4519;SDS011;2272;49.226;8.108;2022-10-16T00:16:35;0.70;;;0.70;;
4519;SDS011;2272;49.226;8.108;2022-10-16T00:19:03;0.80;;;0.80;;
4519;SDS011;2272;49.226;8.108;2022-10-16T00:21:33;0.73;;;0.70;;
4519;SDS011;2272;49.226;8.108;2022-10-16T00:24:00;4.10;;;0.90;;
4519;SDS011;2272;49.226;8.108;2022-10-16T00:26:29;0.80;;;0.80;;
4519;SDS011;2272;49.226;8.108;2022-10-16T00:28:57;1.10;;;0.70;;
4519;SDS011;2272;49.226;8.108;2022-10-16T00:31:24;0.70;;;0.70;;
4519;SDS011;2272;49.226;8.108;2022-10-16T00:33:51;0.57;;;0.57;;
4519;SDS011;2272;49.226;8.108;2022-10-16T00:36:19;0.83;;;0.83;;
4519;SDS011;2272;49.226;8.108;2022-10-16T00:38:49;0.60;;;0.60;;
4519;SDS011;2272;49.226;8.108;2022-10-16T00:41:17;2.57;;;1.20;;
4519;SDS011;2272;49.226;8.108;2022-10-16T00:43:45;1.53;;;1.33;;
4519;SDS011;2272;49.226;8.108;2022-10-16T00:46:15;2.00;;;1.40;;
4519;SDS011;2272;49.226;8.108;2022-10-16T00:48:46;1.40;;;1.40;;
4519;SDS011;2272;49.226;8.108;2022-10-16T00:51:17;1.00;;;1.00;;
4519;SDS011;2272;49.226;8.108;2022-10-16T00:53:49;1.00;;;1.00;;
4519;SDS011;2272;49.226;8.108;2022-10-16T00:56:16;1.17;;;1.10;;
4519;SDS011;2272;49.226;8.108;2022-10-16T00:58:43;1.00;;;1.00;;
4519;SDS011;2272;49.226;8.108;2022-10-16T01:01:10;1.40;;;1.40;;
4519;SDS011;2272;49.226;8.108;2022-10-16T01:03:37;5.17;;;1.23;;
4519;SDS011;2272;49.226;8.108;2022-10-16T01:06:09;1.00;;;1.00;;
4519;SDS011;2272;49.226;8.108;2022-10-16T01:08:52;0.77;;;0.77;;
4519;SDS011;2272;49.226;8.108;2022-10-16T01:11:37;1.10;;;1.10;;
4519;SDS011;2272;49.226;8.108;2022-10-16T01:14:11;2.13;;;1.27;;
4519;SDS011;2272;49.226;8.108;2022-10-16T01:16:46;0.87;;;0.87;;
4519;SDS011;2272;49.226;8.108;2022-10-16T01:19:20;0.80;;;0.80;;
4519;SDS011;2272;49.226;8.108;2022-10-16T01:22:02;1.00;;;1.00;;
4519;SDS011;2272;49.226;8.108;2022-10-16T01:24:33;1.90;;;1.10;;
4519;SDS011;2272;49.226;8.108;2022-10-16T01:27:08;1.00;;;1.00;;
4519;SDS011;2272;49.226;8.108;2022-10-16T01:29:37;1.27;;;1.27;;
4519;SDS011;2272;49.226;8.108;2022-10-16T01:32:10;0.97;;;0.97;;
4519;SDS011;2272;49.226;8.108;2022-10-16T01:34:44;1.70;;;1.60;;
4519;SDS011;2272;49.226;8.108;2022-10-16T01:37:16;1.57;;;1.57;;
4519;SDS011;2272;49.226;8.108;2022-10-16T01:39:47;1.23;;;1.23;;
4519;SDS011;2272;49.226;8.108;2022-10-16T01:42:19;1.30;;;1.30;;
4519;SDS011;2272;49.226;8.108;2022-10-16T01:44:48;1.80;;;1.33;;
4519;SDS011;2272;49.226;8.108;2022-10-16T01:47:17;2.80;;;1.80;;
4519;SDS011;2272;49.226;8.108;2022-10-16T01:49:47;1.10;;;1.10;;
4519;SDS011;2272;49.226;8.108;2022-10-16T01:52:14;1.37;;;1.27;;
4519;SDS011;2272;49.226;8.108;2022-10-16T01:54:46;1.60;;;1.40;;
4519;SDS011;2272;49.226;8.108;2022-10-16T01:57:17;0.90;;;0.90;;
4519;SDS011;2272;49.226;8.108;2022-10-16T01:59:46;1.07;;;1.07;;
4519;SDS011;2272;49.226;8.108;2022-10-16T02:02:15;0.90;;;0.90;;
4519;SDS011;2272;49.226;8.108;2022-10-16T02:04:43;1.20;;;1.20;;
4519;SDS011;2272;49.226;8.108;2022-10-16T02:07:13;1.20;;;1.20;;
4519;SDS011;2272;49.226;8.108;2022-10-16T02:09:40;0.90;;;0.90;;
4519;SDS011;2272;49.226;8.108;2022-10-16T02:12:08;1.30;;;1.30;;
4519;SDS011;2272;49.226;8.108;2022-10-16T02:14:40;1.30;;;1.30;;
4519;SDS011;2272;49.226;8.108;2022-10-16T02:17:11;1.13;;;1.13;;
4519;SDS011;2272;49.226;8.108;2022-10-16T02:19:39;0.90;;;0.90;;
4519;SDS011;2272;49.226;8.108;2022-10-16T02:22:07;1.07;;;1.07;;
4519;SDS011;2272;49.226;8.108;2022-10-16T02:24:38;1.93;;;1.20;;
4519;SDS011;2272;49.226;8.108;2022-10-16T02:27:10;1.03;;;1.03;;
4519;SDS011;2272;49.226;8.108;2022-10-16T02:29:45;3.17;;;1.00;;
4519;SDS011;2272;49.226;8.108;2022-10-16T02:32:17;5.50;;;1.00;;
4519;SDS011;2272;49.226;8.108;2022-10-16T02:34:49;0.80;;;0.80;;
4519;SDS011;2272;49.226;8.108;2022-10-16T02:37:17;1.20;;;1.20;;
4519;SDS011;2272;49.226;8.108;2022-10-16T02:39:44;0.80;;;0.80;;
4519;SDS011;2272;49.226;8.108;2022-10-16T02:42:11;2.70;;;1.00;;
4519;SDS011;2272;49.226;8.108;2022-10-16T02:44:38;0.80;;;0.80;;
4519;SDS011;2272;49.226;8.108;2022-10-16T02:47:07;1.00;;;1.00;;
4519;SDS011;2272;49.226;8.108;2022-10-16T02:49:33;1.20;;;1.20;;
4519;SDS011;2272;49.226;8.108;2022-10-16T02:52:00;1.00;;;1.00;;
4519;SDS011;2272;49.226;8.108;2022-10-16T02:54:27;0.90;;;0.90;;
4519;SDS011;2272;49.226;8.108;2022-10-16T02:56:53;1.90;;;1.60;;
4519;SDS011;2272;49.226;8.108;2022-10-16T02:59:20;1.33;;;1.33;;
4519;SDS011;2272;49.226;8.108;2022-10-16T03:01:47;3.33;;;1.40;;
4519;SDS011;2272;49.226;8.108;2022-10-16T03:04:15;1.37;;;1.37;;
4519;SDS011;2272;49.226;8.108;2022-10-16T03:06:42;1.20;;;1.20;;
4519;SDS011;2272;49.226;8.108;2022-10-16T03:09:09;1.30;;;1.30;;
4519;SDS011;2272;49.226;8.108;2022-10-16T03:11:35;1.97;;;1.87;;
4519;SDS011;2272;49.226;8.108;2022-10-16T03:14:02;1.10;;;1.10;;
4519;SDS011;2272;49.226;8.108;2022-10-16T03:16:29;1.60;;;1.50;;
4519;SDS011;2272;49.226;8.108;2022-10-16T03:18:55;2.00;;;1.50;;
4519;SDS011;2272;49.226;8.108;2022-10-16T03:21:24;1.40;;;1.40;;
4519;SDS011;2272;49.226;8.108;2022-10-16T03:23:50;1.53;;;1.53;;
4519;SDS011;2272;49.226;8.108;2022-10-16T03:26:17;1.30;;;1.30;;
4519;SDS011;2272;49.226;8.108;2022-10-16T03:28:44;1.40;;;1.30;;
4519;SDS011;2272;49.226;8.108;2022-10-16T03:31:10;4.70;;;1.37;;
4519;SDS011;2272;49.226;8.108;2022-10-16T03:33:37;1.10;;;1.10;;
4519;SDS011;2272;49.226;8.108;2022-10-16T03:36:04;1.40;;;1.30;;
4519;SDS011;2272;49.226;8.108;2022-10-16T03:38:32;1.40;;;1.23;;
4519;SDS011;2272;49.226;8.108;2022-10-16T03:40:59;1.50;;;1.43;;
4519;SDS011;2272;49.226;8.108;2022-10-16T03:43:26;1.53;;;1.20;;
4519;SDS011;2272;49.226;8.108;2022-10-16T03:45:53;2.07;;;1.27;;
4519;SDS011;2272;49.226;8.108;2022-10-16T03:48:19;1.23;;;1.23;;
4519;SDS011;2272;49.226;8.108;2022-10-16T03:50:46;1.37;;;1.20;;
4519;SDS011;2272;49.226;8.108;2022-10-16T03:53:13;1.23;;;1.20;;
4519;SDS011;2272;49.226;8.108;2022-10-16T03:55:42;2.60;;;1.30;;
4519;SDS011;2272;49.226;8.108;2022-10-16T03:58:09;1.40;;;1.30;;
4519;SDS011;2272;49.226;8.108;2022-10-16T04:00:39;1.23;;;1.23;;
4519;SDS011;2272;49.226;8.108;2022-10-16T04:03:06;1.83;;;1.03;;
4519;SDS011;2272;49.226;8.108;2022-10-16T04:05:33;1.00;;;1.00;;
4519;SDS011;2272;49.226;8.108;2022-10-16T04:08:00;0.93;;;0.93;;
4519;SDS011;2272;49.226;8.108;2022-10-16T04:10:26;1.83;;;1.00;;
4519;SDS011;2272;49.226;8.108;2022-10-16T04:12:55;1.00;;;1.00;;
4519;SDS011;2272;49.226;8.108;2022-10-16T04:15:21;2.73;;;1.20;;
4519;SDS011;2272;49.226;8.108;2022-10-16T04:17:48;1.17;;;1.00;;
4519;SDS011;2272;49.226;8.108;2022-10-16T04:20:15;2.40;;;1.20;;
4519;SDS011;2272;49.226;8.108;2022-10-16T04:22:42;1.00;;;1.00;;
4519;SDS011;2272;49.226;8.108;2022-10-16T04:25:09;1.23;;;0.90;;
4519;SDS011;2272;49.226;8.108;2022-10-16T04:27:36;1.00;;;1.00;;
4519;SDS011;2272;49.226;8.108;2022-10-16T04:30:05;1.67;;;1.50;;
4519;SDS011;2272;49.226;8.108;2022-10-16T04:32:32;1.20;;;1.20;;
4519;SDS011;2272;49.226;8.108;2022-10-16T04:34:59;1.00;;;1.00;;
4519;SDS011;2272;49.226;8.108;2022-10-16T04:37:26;1.10;;;1.10;;
4519;SDS011;2272;49.226;8.108;2022-10-16T04:39:53;1.00;;;1.00;;
4519;SDS011;2272;49.226;8.108;2022-10-16T04:42:20;1.00;;;1.00;;
4519;SDS011;2272;49.226;8.108;2022-10-16T04:44:47;2.10;;;1.30;;
4519;SDS011;2272;49.226;8.108;2022-10-16T04:47:15;1.20;;;1.10;;
4519;SDS011;2272;49.226;8.108;2022-10-16T04:49:42;2.50;;;1.37;;
4519;SDS011;2272;49.226;8.108;2022-10-16T04:52:09;1.07;;;1.07;;
4519;SDS011;2272;49.226;8.108;2022-10-16T04:54:36;1.40;;;1.40;;
4519;SDS011;2272;49.226;8.108;2022-10-16T04:57:02;1.00;;;1.00;;
4519;SDS011;2272;49.226;8.108;2022-10-16T04:59:29;1.37;;;1.00;;
4519;SDS011;2272;49.226;8.108;2022-10-16T05:01:56;0.97;;;0.97;;
4519;SDS011;2272;49.226;8.108;2022-10-16T05:04:24;3.50;;;1.27;;
4519;SDS011;2272;49.226;8.108;2022-10-16T05:06:51;1.70;;;1.30;;
4519;SDS011;2272;49.226;8.108;2022-10-16T05:09:18;1.10;;;1.10;;
4519;SDS011;2272;49.226;8.108;2022-10-16T05:11:45;2.50;;;1.50;;
4519;SDS011;2272;49.226;8.108;2022-10-16T05:14:12;1.27;;;1.27;;
4519;SDS011;2272;49.226;8.108;2022-10-16T05:16:38;9.63;;;1.53;;
4519;SDS011;2272;49.226;8.108;2022-10-16T05:19:05;1.30;;;1.20;;
4519;SDS011;2272;49.226;8.108;2022-10-16T05:21:33;1.10;;;1.10;;
4519;SDS011;2272;49.226;8.108;2022-10-16T05:24:00;1.10;;;1.10;;
4519;SDS011;2272;49.226;8.108;2022-10-16T05:26:27;2.10;;;1.57;;
4519;SDS011;2272;49.226;8.108;2022-10-16T05:28:53;1.93;;;1.93;;
4519;SDS011;2272;49.226;8.108;2022-10-16T05:31:20;1.60;;;1.60;;
4519;SDS011;2272;49.226;8.108;2022-10-16T05:33:47;1.67;;;1.60;;
4519;SDS011;2272;49.226;8.108;2022-10-16T05:36:13;2.70;;;2.50;;
4519;SDS011;2272;49.226;8.108;2022-10-16T05:38:42;2.80;;;2.40;;
4519;SDS011;2272;49.226;8.108;2022-10-16T05:41:20;2.23;;;2.03;;
4519;SDS011;2272;49.226;8.108;2022-10-16T05:44:10;1.80;;;1.70;;
4519;SDS011;2272;49.226;8.108;2022-10-16T05:46:59;1.93;;;1.83;;
4519;SDS011;2272;49.226;8.108;2022-10-16T05:49:30;10.80;;;1.50;;
4519;SDS011;2272;49.226;8.108;2022-10-16T05:51:57;1.70;;;1.60;;
4519;SDS011;2272;49.226;8.108;2022-10-16T05:54:25;2.13;;;1.90;;
4519;SDS011;2272;49.226;8.108;2022-10-16T05:56:52;2.50;;;2.40;;
4519;SDS011;2272;49.226;8.108;2022-10-16T05:59:19;2.13;;;2.03;;
4519;SDS011;2272;49.226;8.108;2022-10-16T06:01:45;3.67;;;1.57;;
4519;SDS011;2272;49.226;8.108;2022-10-16T06:04:12;1.60;;;1.50;;
4519;SDS011;2272;49.226;8.108;2022-10-16T06:06:40;2.50;;;1.83;;
4519;SDS011;2272;49.226;8.108;2022-10-16T06:09:07;11.23;;;2.00;;
4519;SDS011;2272;49.226;8.108;2022-10-16T06:11:37;5.13;;;2.17;;
4519;SDS011;2272;49.226;8.108;2022-10-16T06:14:03;1.20;;;1.20;;
4519;SDS011;2272;49.226;8.108;2022-10-16T06:16:32;2.00;;;1.43;;
4519;SDS011;2272;49.226;8.108;2022-10-16T06:18:59;3.70;;;1.53;;
4519;SDS011;2272;49.226;8.108;2022-10-16T06:21:26;1.23;;;1.23;;
4519;SDS011;2272;49.226;8.108;2022-10-16T06:23:54;1.70;;;1.23;;
4519;SDS011;2272;49.226;8.108;2022-10-16T06:26:23;1.00;;;1.00;;
4519;SDS011;2272;49.226;8.108;2022-10-16T06:28:53;1.27;;;1.27;;
4519;SDS011;2272;49.226;8.108;2022-10-16T06:31:20;1.00;;;1.00;;
4519;SDS011;2272;49.226;8.108;2022-10-16T06:33:49;1.10;;;1.10;;
4519;SDS011;2272;49.226;8.108;2022-10-16T06:36:17;1.30;;;1.30;;
4519;SDS011;2272;49.226;8.108;2022-10-16T06:38:44;1.60;;;1.50;;
4519;SDS011;2272;49.226;8.108;2022-10-16T06:41:11;1.40;;;1.40;;
4519;SDS011;2272;49.226;8.108;2022-10-16T06:43:38;2.03;;;1.93;;
4519;SDS011;2272;49.226;8.108;2022-10-16T06:46:07;1.73;;;1.73;;
4519;SDS011;2272;49.226;8.108;2022-10-16T06:48:37;3.73;;;1.70;;
4519;SDS011;2272;49.226;8.108;2022-10-16T06:51:06;2.30;;;1.70;;
4519;SDS011;2272;49.226;8.108;2022-10-16T06:53:36;3.13;;;1.83;;
4519;SDS011;2272;49.226;8.108;2022-10-16T06:56:08;1.67;;;1.67;;
4519;SDS011;2272;49.226;8.108;2022-10-16T06:58:37;1.90;;;1.70;;
4519;SDS011;2272;49.226;8.108;2022-10-16T07:01:04;9.20;;;2.10;;
4519;SDS011;2272;49.226;8.108;2022-10-16T07:03:45;3.00;;;2.90;;
4519;SDS011;2272;49.226;8.108;2022-10-16T07:06:13;6.93;;;2.33;;
4519;SDS011;2272;49.226;8.108;2022-10-16T07:08:42;2.27;;;2.17;;
4519;SDS011;2272;49.226;8.108;2022-10-16T07:11:11;2.40;;;2.30;;
4519;SDS011;2272;49.226;8.108;2022-10-16T07:13:40;2.20;;;2.00;;
4519;SDS011;2272;49.226;8.108;2022-10-16T07:16:09;1.87;;;1.87;;
4519;SDS011;2272;49.226;8.108;2022-10-16T07:18:37;2.50;;;2.27;;
4519;SDS011;2272;49.226;8.108;2022-10-16T07:21:07;2.20;;;2.10;;
4519;SDS011;2272;49.226;8.108;2022-10-16T07:23:35;4.30;;;2.53;;
4519;SDS011;2272;49.226;8.108;2022-10-16T07:26:02;2.07;;;2.00;;
4519;SDS011;2272;49.226;8.108;2022-10-16T07:28:30;1.70;;;1.70;;
4519;SDS011;2272;49.226;8.108;2022-10-16T07:30:59;2.23;;;2.13;;
4519;SDS011;2272;49.226;8.108;2022-10-16T07:33:27;2.30;;;1.60;;
4519;SDS011;2272;49.226;8.108;2022-10-16T07:35:54;2.10;;;2.10;;
4519;SDS011;2272;49.226;8.108;2022-10-16T07:38:23;7.13;;;2.60;;
4519;SDS011;2272;49.226;8.108;2022-10-16T07:40:55;2.80;;;2.70;;
4519;SDS011;2272;49.226;8.108;2022-10-16T07:43:23;4.30;;;2.30;;
4519;SDS011;2272;49.226;8.108;2022-10-16T07:45:50;2.17;;;2.17;;
4519;SDS011;2272;49.226;8.108;2022-10-16T07:48:18;2.53;;;2.33;;
4519;SDS011;2272;49.226;8.108;2022-10-16T07:50:45;2.40;;;2.30;;
4519;SDS011;2272;49.226;8.108;2022-10-16T07:53:12;2.73;;;2.60;;
4519;SDS011;2272;49.226;8.108;2022-10-16T07:55:40;2.20;;;1.80;;
4519;SDS011;2272;49.226;8.108;2022-10-16T07:58:07;7.87;;;2.63;;
4519;SDS011;2272;49.226;8.108;2022-10-16T08:00:35;8.33;;;2.77;;
4519;SDS011;2272;49.226;8.108;2022-10-16T08:03:02;2.40;;;2.30;;
4519;SDS011;2272;49.226;8.108;2022-10-16T08:05:30;2.83;;;2.73;;
4519;SDS011;2272;49.226;8.108;2022-10-16T08:07:58;2.60;;;2.30;;
4519;SDS011;2272;49.226;8.108;2022-10-16T08:10:26;2.70;;;2.50;;
4519;SDS011;2272;49.226;8.108;2022-10-16T08:12:55;8.40;;;2.80;;
4519;SDS011;2272;49.226;8.108;2022-10-16T08:15:22;2.43;;;2.30;;
4519;SDS011;2272;49.226;8.108;2022-10-16T08:17:55;2.13;;;2.03;;
4519;SDS011;2272;49.226;8.108;2022-10-16T08:20:23;2.00;;;1.90;;
4519;SDS011;2272;49.226;8.108;2022-10-16T08:22:50;5.17;;;2.67;;
4519;SDS011;2272;49.226;8.108;2022-10-16T08:25:17;3.47;;;3.17;;
4519;SDS011;2272;49.226;8.108;2022-10-16T08:27:44;2.30;;;2.20;;
4519;SDS011;2272;49.226;8.108;2022-10-16T08:30:12;3.73;;;2.10;;
4519;SDS011;2272;49.226;8.108;2022-10-16T08:32:39;1.90;;;1.90;;
4519;SDS011;2272;49.226;8.108;2022-10-16T08:35:07;3.07;;;2.47;;
4519;SDS011;2272;49.226;8.108;2022-10-16T08:37:34;2.57;;;2.47;;
4519;SDS011;2272;49.226;8.108;2022-10-16T08:40:01;1.87;;;1.87;;
4519;SDS011;2272;49.226;8.108;2022-10-16T08:42:31;2.13;;;2.03;;
4519;SDS011;2272;49.226;8.108;2022-10-16T08:48:14;4.60;;;2.40;;
4519;SDS011;2272;49.226;8.108;2022-10-16T08:50:44;12.20;;;2.13;;
4519;SDS011;2272;49.226;8.108;2022-10-16T08:53:14;2.63;;;2.20;;
4519;SDS011;2272;49.226;8.108;2022-10-16T08:55:45;2.30;;;2.10;;
4519;SDS011;2272;49.226;8.108;2022-10-16T08:58:16;3.10;;;2.00;;
4519;SDS011;2272;49.226;8.108;2022-10-16T09:00:46;1.83;;;1.80;;
4519;SDS011;2272;49.226;8.108;2022-10-16T09:03:21;1.73;;;1.73;;
4519;SDS011;2272;49.226;8.108;2022-10-16T09:08:45;3.20;;;1.60;;
4519;SDS011;2272;49.226;8.108;2022-10-16T09:11:17;10.90;;;2.63;;
4519;SDS011;2272;49.226;8.108;2022-10-16T09:13:58;1.80;;;1.70;;
4519;SDS011;2272;49.226;8.108;2022-10-16T09:16:34;3.10;;;1.80;;
4519;SDS011;2272;49.226;8.108;2022-10-16T09:19:04;1.57;;;1.57;;
4519;SDS011;2272;49.226;8.108;2022-10-16T09:21:41;1.77;;;1.67;;
4519;SDS011;2272;49.226;8.108;2022-10-16T09:24:10;1.60;;;1.50;;
4519;SDS011;2272;49.226;8.108;2022-10-16T09:26:38;1.50;;;1.40;;
4519;SDS011;2272;49.226;8.108;2022-10-16T09:29:06;2.10;;;1.90;;
4519;SDS011;2272;49.226;8.108;2022-10-16T09:31:36;1.50;;;1.40;;
4519;SDS011;2272;49.226;8.108;2022-10-16T09:34:03;4.20;;;1.33;;
4519;SDS011;2272;49.226;8.108;2022-10-16T09:36:35;1.50;;;1.40;;
4519;SDS011;2272;49.226;8.108;2022-10-16T09:39:07;1.47;;;1.33;;
4519;SDS011;2272;49.226;8.108;2022-10-16T09:41:35;2.53;;;1.50;;
4519;SDS011;2272;49.226;8.108;2022-10-16T09:44:03;1.50;;;1.43;;
4519;SDS011;2272;49.226;8.108;2022-10-16T09:46:33;1.57;;;1.57;;
4519;SDS011;2272;49.226;8.108;2022-10-16T09:49:03;1.60;;;1.50;;
4519;SDS011;2272;49.226;8.108;2022-10-16T09:51:32;2.70;;;1.67;;
4519;SDS011;2272;49.226;8.108;2022-10-16T09:54:01;2.20;;;2.00;;
4519;SDS011;2272;49.226;8.108;2022-10-16T09:56:39;1.80;;;1.70;;
4519;SDS011;2272;49.226;8.108;2022-10-16T09:59:08;1.50;;;1.40;;
4519;SDS011;2272;49.226;8.108;2022-10-16T10:01:39;2.03;;;1.93;;
4519;SDS011;2272;49.226;8.108;2022-10-16T10:04:08;4.83;;;1.57;;
4519;SDS011;2272;49.226;8.108;2022-10-16T10:06:37;11.03;;;1.90;;
4519;SDS011;2272;49.226;8.108;2022-10-16T10:09:15;2.10;;;2.00;;
4519;SDS011;2272;49.226;8.108;2022-10-16T10:11:48;2.93;;;2.03;;
4519;SDS011;2272;49.226;8.108;2022-10-16T10:14:21;6.10;;;2.77;;
4519;SDS011;2272;49.226;8.108;2022-10-16T10:16:50;1.60;;;1.50;;
4519;SDS011;2272;49.226;8.108;2022-10-16T10:19:21;2.13;;;1.97;;
4519;SDS011;2272;49.226;8.108;2022-10-16T10:21:49;1.80;;;1.70;;
4519;SDS011;2272;49.226;8.108;2022-10-16T10:24:18;1.60;;;1.50;;
4519;SDS011;2272;49.226;8.108;2022-10-16T10:26:54;2.27;;;2.10;;
4519;SDS011;2272;49.226;8.108;2022-10-16T10:29:28;1.90;;;1.73;;
4519;SDS011;2272;49.226;8.108;2022-10-16T10:32:11;3.70;;;2.00;;
4519;SDS011;2272;49.226;8.108;2022-10-16T10:34:51;20.87;;;1.87;;
4519;SDS011;2272;49.226;8.108;2022-10-16T10:37:35;2.00;;;1.57;;
4519;SDS011;2272;49.226;8.108;2022-10-16T10:40:28;4.23;;;1.73;;
4519;SDS011;2272;49.226;8.108;2022-10-16T10:43:06;2.20;;;2.10;;
4519;SDS011;2272;49.226;8.108;2022-10-16T10:45:41;1.87;;;1.77;;
4519;SDS011;2272;49.226;8.108;2022-10-16T10:48:22;5.03;;;2.20;;
4519;SDS011;2272;49.226;8.108;2022-10-16T10:51:01;1.77;;;1.67;;
4519;SDS011;2272;49.226;8.108;2022-10-16T10:53:37;2.53;;;2.37;;
4519;SDS011;2272;49.226;8.108;2022-10-16T10:56:14;2.80;;;2.17;;
4519;SDS011;2272;49.226;8.108;2022-10-16T10:58:54;1.80;;;1.70;;
4519;SDS011;2272;49.226;8.108;2022-10-16T11:01:36;1.47;;;1.47;;
4519;SDS011;2272;49.226;8.108;2022-10-16T11:04:18;1.93;;;1.83;;
4519;SDS011;2272;49.226;8.108;2022-10-16T11:07:11;1.70;;;1.60;;
4519;SDS011;2272;49.226;8.108;2022-10-16T11:09:43;4.00;;;2.00;;
4519;SDS011;2272;49.226;8.108;2022-10-16T11:12:14;3.47;;;2.03;;
4519;SDS011;2272;49.226;8.108;2022-10-16T11:14:46;2.27;;;2.17;;
4519;SDS011;2272;49.226;8.108;2022-10-16T11:17:18;2.57;;;1.90;;
4519;SDS011;2272;49.226;8.108;2022-10-16T11:19:51;1.60;;;1.60;;
4519;SDS011;2272;49.226;8.108;2022-10-16T11:22:23;1.80;;;1.70;;
4519;SDS011;2272;49.226;8.108;2022-10-16T11:24:58;9.27;;;2.33;;
4519;SDS011;2272;49.226;8.108;2022-10-16T11:27:33;4.13;;;1.97;;
4519;SDS011;2272;49.226;8.108;2022-10-16T11:30:05;2.27;;;2.17;;
4519;SDS011;2272;49.226;8.108;2022-10-16T11:32:41;4.63;;;1.87;;
4519;SDS011;2272;49.226;8.108;2022-10-16T11:35:17;1.60;;;1.50;;
4519;SDS011;2272;49.226;8.108;2022-10-16T11:37:49;3.63;;;2.30;;
4519;SDS011;2272;49.226;8.108;2022-10-16T11:40:19;1.83;;;1.73;;
4519;SDS011;2272;49.226;8.108;2022-10-16T11:42:51;2.10;;;2.00;;
4519;SDS011;2272;49.226;8.108;2022-10-16T11:45:24;3.70;;;2.27;;
4519;SDS011;2272;49.226;8.108;2022-10-16T11:47:58;11.10;;;2.33;;
4519;SDS011;2272;49.226;8.108;2022-10-16T11:50:31;3.73;;;2.07;;
4519;SDS011;2272;49.226;8.108;2022-10-16T11:53:04;3.50;;;1.97;;
4519;SDS011;2272;49.226;8.108;2022-10-16T11:55:40;3.33;;;2.03;;
4519;SDS011;2272;49.226;8.108;2022-10-16T11:58:12;5.20;;;1.93;;
4519;SDS011;2272;49.226;8.108;2022-10-16T12:00:47;3.93;;;1.87;;
4519;SDS011;2272;49.226;8.108;2022-10-16T12:03:22;1.97;;;1.87;;
4519;SDS011;2272;49.226;8.108;2022-10-16T12:05:58;2.23;;;1.90;;
4519;SDS011;2272;49.226;8.108;2022-10-16T12:08:35;2.20;;;2.00;;
4519;SDS011;2272;49.226;8.108;2022-10-16T12:11:09;6.10;;;2.57;;
4519;SDS011;2272;49.226;8.108;2022-10-16T12:13:37;8.57;;;2.10;;
4519;SDS011;2272;49.226;8.108;2022-10-16T12:16:06;2.30;;;2.10;;
4519;SDS011;2272;49.226;8.108;2022-10-16T12:18:33;2.30;;;2.20;;
4519;SDS011;2272;49.226;8.108;2022-10-16T12:21:00;3.67;;;2.60;;
4519;SDS011;2272;49.226;8.108;2022-10-16T12:23:31;3.90;;;1.87;;
4519;SDS011;2272;49.226;8.108;2022-10-16T12:26:00;2.20;;;2.07;;
4519;SDS011;2272;49.226;8.108;2022-10-16T12:28:28;1.97;;;1.87;;
4519;SDS011;2272;49.226;8.108;2022-10-16T12:30:57;6.90;;;2.50;;
4519;SDS011;2272;49.226;8.108;2022-10-16T12:33:26;11.33;;;2.30;;
4519;SDS011;2272;49.226;8.108;2022-10-16T12:35:55;10.30;;;2.33;;
4519;SDS011;2272;49.226;8.108;2022-10-16T12:38:25;1.50;;;1.50;;
4519;SDS011;2272;49.226;8.108;2022-10-16T12:40:55;2.80;;;2.30;;
4519;SDS011;2272;49.226;8.108;2022-10-16T12:43:27;2.13;;;1.80;;
4519;SDS011;2272;49.226;8.108;2022-10-16T12:46:03;2.00;;;1.60;;
4519;SDS011;2272;49.226;8.108;2022-10-16T12:48:46;2.50;;;2.20;;
4519;SDS011;2272;49.226;8.108;2022-10-16T12:51:21;3.07;;;1.90;;
4519;SDS011;2272;49.226;8.108;2022-10-16T12:53:57;2.20;;;2.10;;
4519;SDS011;2272;49.226;8.108;2022-10-16T12:56:26;3.23;;;2.93;;
4519;SDS011;2272;49.226;8.108;2022-10-16T12:59:11;2.73;;;1.93;;
4519;SDS011;2272;49.226;8.108;2022-10-16T13:01:55;7.90;;;2.27;;
4519;SDS011;2272;49.226;8.108;2022-10-16T13:04:43;2.60;;;2.20;;
4519;SDS011;2272;49.226;8.108;2022-10-16T13:07:28;4.13;;;2.20;;
4519;SDS011;2272;49.226;8.108;2022-10-16T13:10:12;6.33;;;1.93;;
4519;SDS011;2272;49.226;8.108;2022-10-16T13:12:50;2.17;;;2.07;;
4519;SDS011;2272;49.226;8.108;2022-10-16T13:15:47;10.00;;;3.53;;
4519;SDS011;2272;49.226;8.108;2022-10-16T13:18:25;3.90;;;3.50;;
4519;SDS011;2272;49.226;8.108;2022-10-16T13:21:03;8.97;;;4.03;;
4519;SDS011;2272;49.226;8.108;2022-10-16T13:23:40;3.53;;;3.30;;
4519;SDS011;2272;49.226;8.108;2022-10-16T13:26:17;3.73;;;3.40;;
4519;SDS011;2272;49.226;8.108;2022-10-16T13:28:49;3.00;;;2.80;;
4519;SDS011;2272;49.226;8.108;2022-10-16T13:31:18;5.43;;;3.60;;
4519;SDS011;2272;49.226;8.108;2022-10-16T13:33:48;2.90;;;2.77;;
4519;SDS011;2272;49.226;8.108;2022-10-16T13:36:20;3.93;;;2.70;;
4519;SDS011;2272;49.226;8.108;2022-10-16T13:38:48;2.90;;;2.70;;
4519;SDS011;2272;49.226;8.108;2022-10-16T13:41:25;3.80;;;3.50;;
4519;SDS011;2272;49.226;8.108;2022-10-16T13:43:52;4.30;;;3.67;;
4519;SDS011;2272;49.226;8.108;2022-10-16T13:46:23;3.47;;;3.27;;
4519;SDS011;2272;49.226;8.108;2022-10-16T13:48:57;3.60;;;3.30;;
4519;SDS011;2272;49.226;8.108;2022-10-16T13:51:26;5.50;;;4.53;;
4519;SDS011;2272;49.226;8.108;2022-10-16T13:53:54;7.83;;;4.70;;
4519;SDS011;2272;49.226;8.108;2022-10-16T13:56:22;7.30;;;3.60;;
4519;SDS011;2272;49.226;8.108;2022-10-16T13:58:58;4.37;;;3.97;;
4519;SDS011;2272;49.226;8.108;2022-10-16T14:01:27;3.70;;;3.40;;
4519;SDS011;2272;49.226;8.108;2022-10-16T14:04:00;3.03;;;2.83;;
4519;SDS011;2272;49.226;8.108;2022-10-16T14:06:30;6.13;;;3.93;;
4519;SDS011;2272;49.226;8.108;2022-10-16T14:08:59;12.93;;;6.67;;
4519;SDS011;2272;49.226;8.108;2022-10-16T14:11:30;7.80;;;4.53;;
4519;SDS011;2272;49.226;8.108;2022-10-16T14:13:58;4.93;;;4.37;;
4519;SDS011;2272;49.226;8.108;2022-10-16T14:16:28;4.60;;;3.10;;
4519;SDS011;2272;49.226;8.108;2022-10-16T14:18:57;3.57;;;3.27;;
4519;SDS011;2272;49.226;8.108;2022-10-16T14:21:26;3.83;;;2.40;;
4519;SDS011;2272;49.226;8.108;2022-10-16T14:23:53;8.63;;;2.40;;
4519;SDS011;2272;49.226;8.108;2022-10-16T14:26:21;2.80;;;2.60;;
4519;SDS011;2272;49.226;8.108;2022-10-16T14:29:00;10.53;;;2.90;;
4519;SDS011;2272;49.226;8.108;2022-10-16T14:31:32;3.20;;;3.00;;
4519;SDS011;2272;49.226;8.108;2022-10-16T14:34:01;5.20;;;2.40;;
4519;SDS011;2272;49.226;8.108;2022-10-16T14:36:28;2.53;;;2.43;;
4519;SDS011;2272;49.226;8.108;2022-10-16T14:38:59;2.33;;;2.17;;
4519;SDS011;2272;49.226;8.108;2022-10-16T14:41:28;2.97;;;2.57;;
4519;SDS011;2272;49.226;8.108;2022-10-16T14:43:57;3.03;;;2.83;;
4519;SDS011;2272;49.226;8.108;2022-10-16T14:46:33;2.77;;;2.40;;
4519;SDS011;2272;49.226;8.108;2022-10-16T14:49:03;4.43;;;2.27;;
4519;SDS011;2272;49.226;8.108;2022-10-16T14:51:46;4.80;;;2.70;;
4519;SDS011;2272;49.226;8.108;2022-10-16T14:54:14;8.00;;;2.33;;
4519;SDS011;2272;49.226;8.108;2022-10-16T14:56:44;3.37;;;2.37;;
4519;SDS011;2272;49.226;8.108;2022-10-16T14:59:14;5.77;;;2.33;;
4519;SDS011;2272;49.226;8.108;2022-10-16T15:01:46;2.30;;;2.20;;
4519;SDS011;2272;49.226;8.108;2022-10-16T15:04:13;3.20;;;2.00;;
4519;SDS011;2272;49.226;8.108;2022-10-16T15:06:41;3.33;;;2.37;;
4519;SDS011;2272;49.226;8.108;2022-10-16T15:09:08;2.83;;;2.63;;
4519;SDS011;2272;49.226;8.108;2022-10-16T15:11:35;1.93;;;1.83;;
4519;SDS011;2272;49.226;8.108;2022-10-16T15:14:02;2.53;;;2.30;;
4519;SDS011;2272;49.226;8.108;2022-10-16T15:16:29;2.10;;;2.00;;
4519;SDS011;2272;49.226;8.108;2022-10-16T15:18:58;3.23;;;2.03;;
4519;SDS011;2272;49.226;8.108;2022-10-16T15:21:25;3.50;;;2.80;;
4519;SDS011;2272;49.226;8.108;2022-10-16T15:23:54;2.30;;;2.20;;
4519;SDS011;2272;49.226;8.108;2022-10-16T15:26:22;2.20;;;2.10;;
4519;SDS011;2272;49.226;8.108;2022-10-16T15:28:49;2.67;;;2.47;;
4519;SDS011;2272;49.226;8.108;2022-10-16T15:31:16;4.27;;;2.40;;
4519;SDS011;2272;49.226;8.108;2022-10-16T15:33:43;2.00;;;1.90;;
4519;SDS011;2272;49.226;8.108;2022-10-16T15:36:14;1.90;;;1.80;;
4519;SDS011;2272;49.226;8.108;2022-10-16T15:38:40;2.10;;;2.00;;
4519;SDS011;2272;49.226;8.108;2022-10-16T15:41:07;2.30;;;2.20;;